sensor_id;sensor_type;location;lat;lon;timestamp;pressure;altitude;pressure_sealevel;temperature;humidity
15670;BME280;18524;45.190;5.732;2023-03-11T00:03:02;98538.91;;;9.83;100.00
15670;BME280;18524;45.190;5.732;2023-03-11T00:07:53;98542.63;;;9.90;100.00
15670;BME280;18524;45.190;5.732;2023-03-11T00:12:44;98538.91;;;9.83;100.00
15670;BME280;18524;45.190;5.732;2023-03-11T00:17:34;98533.66;;;9.83;100.00
15670;BME280;18524;45.190;5.732;2023-03-11T00:22:25;98515.59;;;9.80;100.00
15670;BME280;18524;45.190;5.732;2023-03-11T00:27:15;98488.72;;;9.78;100.00
15670;BME280;18524;45.190;5.732;2023-03-11T00:32:06;98502.88;;;9.65;100.00
15670;BME280;18524;45.190;5.732;2023-03-11T00:36:56;98492.97;;;9.69;100.00
15670;BME280;18524;45.190;5.732;2023-03-11T00:41:47;98491.06;;;9.81;100.00
15670;BME280;18524;45.190;5.732;2023-03-11T00:46:37;98479.84;;;9.59;100.00
15670;BME280;18524;45.190;5.732;2023-03-11T00:51:27;98467.16;;;9.55;100.00
15670;BME280;18524;45.190;5.732;2023-03-11T00:56:19;98473.81;;;9.68;100.00
15670;BME280;18524;45.190;5.732;2023-03-11T01:01:13;98460.63;;;9.80;100.00
15670;BME280;18524;45.190;5.732;2023-03-11T01:06:04;98457.78;;;9.52;100.00
15670;BME280;18524;45.190;5.732;2023-03-11T01:10:54;98446.00;;;9.67;100.00
15670;BME280;18524;45.190;5.732;2023-03-11T01:15:45;98430.53;;;9.55;100.00
15670;BME280;18524;45.190;5.732;2023-03-11T01:20:37;98434.94;;;9.64;100.00
15670;BME280;18524;45.190;5.732;2023-03-11T01:25:28;98403.84;;;9.70;100.00
15670;BME280;18524;45.190;5.732;2023-03-11T01:30:21;98416.75;;;9.62;100.00
15670;BME280;18524;45.190;5.732;2023-03-11T01:35:14;98418.25;;;9.55;100.00
15670;BME280;18524;45.190;5.732;2023-03-11T01:40:06;98394.84;;;9.54;100.00
15670;BME280;18524;45.190;5.732;2023-03-11T01:44:57;98380.66;;;9.47;100.00
15670;BME280;18524;45.190;5.732;2023-03-11T01:49:47;98398.25;;;9.35;100.00
15670;BME280;18524;45.190;5.732;2023-03-11T01:54:39;98370.44;;;9.34;100.00
15670;BME280;18524;45.190;5.732;2023-03-11T01:59:35;98359.84;;;9.35;100.00
15670;BME280;18524;45.190;5.732;2023-03-11T02:04:27;98356.94;;;9.48;100.00
15670;BME280;18524;45.190;5.732;2023-03-11T02:09:18;98342.34;;;9.36;100.00
15670;BME280;18524;45.190;5.732;2023-03-11T02:14:09;98333.53;;;9.37;100.00
15670;BME280;18524;45.190;5.732;2023-03-11T02:19:08;98320.03;;;9.32;100.00
15670;BME280;18524;45.190;5.732;2023-03-11T02:24:34;98308.88;;;9.30;100.00
15670;BME280;18524;45.190;5.732;2023-03-11T02:29:28;98290.38;;;9.12;100.00
15670;BME280;18524;45.190;5.732;2023-03-11T02:34:27;98271.94;;;9.14;100.00
15670;BME280;18524;45.190;5.732;2023-03-11T02:39:34;98250.75;;;9.26;100.00
15670;BME280;18524;45.190;5.732;2023-03-11T02:44:25;98249.78;;;9.27;100.00
15670;BME280;18524;45.190;5.732;2023-03-11T02:49:16;98250.34;;;9.31;100.00
15670;BME280;18524;45.190;5.732;2023-03-11T02:54:07;98242.88;;;9.26;100.00
15670;BME280;18524;45.190;5.732;2023-03-11T02:58:57;98234.66;;;9.31;100.00
15670;BME280;18524;45.190;5.732;2023-03-11T03:03:47;98221.03;;;9.37;100.00
15670;BME280;18524;45.190;5.732;2023-03-11T03:08:38;98230.81;;;9.35;100.00
15670;BME280;18524;45.190;5.732;2023-03-11T03:13:28;98233.81;;;9.40;100.00
15670;BME280;18524;45.190;5.732;2023-03-11T03:18:19;98258.88;;;9.33;100.00
15670;BME280;18524;45.190;5.732;2023-03-11T03:23:10;98240.41;;;9.25;100.00
15670;BME280;18524;45.190;5.732;2023-03-11T03:28:00;98248.44;;;9.33;100.00
15670;BME280;18524;45.190;5.732;2023-03-11T03:32:51;98221.44;;;9.32;100.00
15670;BME280;18524;45.190;5.732;2023-03-11T03:37:41;98214.25;;;9.54;100.00
15670;BME280;18524;45.190;5.732;2023-03-11T03:42:32;98211.78;;;9.14;100.00
15670;BME280;18524;45.190;5.732;2023-03-11T03:47:22;98198.56;;;9.15;100.00
15670;BME280;18524;45.190;5.732;2023-03-11T03:52:13;98210.81;;;9.15;100.00
15670;BME280;18524;45.190;5.732;2023-03-11T03:57:04;98197.75;;;9.05;100.00
15670;BME280;18524;45.190;5.732;2023-03-11T04:01:54;98177.53;;;8.97;100.00
15670;BME280;18524;45.190;5.732;2023-03-11T04:06:45;98209.03;;;8.96;100.00
15670;BME280;18524;45.190;5.732;2023-03-11T04:11:36;98212.75;;;9.13;100.00
15670;BME280;18524;45.190;5.732;2023-03-11T04:16:27;98181.19;;;8.85;100.00
15670;BME280;18524;45.190;5.732;2023-03-11T04:21:17;98207.06;;;8.88;100.00
15670;BME280;18524;45.190;5.732;2023-03-11T04:26:08;98219.19;;;8.80;100.00
15670;BME280;18524;45.190;5.732;2023-03-11T04:30:58;98166.63;;;8.63;100.00
15670;BME280;18524;45.190;5.732;2023-03-11T04:35:49;98190.69;;;8.57;100.00
15670;BME280;18524;45.190;5.732;2023-03-11T04:40:39;98189.13;;;8.55;100.00
15670;BME280;18524;45.190;5.732;2023-03-11T04:45:29;98182.53;;;8.51;100.00
15670;BME280;18524;45.190;5.732;2023-03-11T04:50:20;98194.75;;;8.40;100.00
15670;BME280;18524;45.190;5.732;2023-03-11T04:55:10;98197.34;;;8.40;100.00
15670;BME280;18524;45.190;5.732;2023-03-11T05:00:03;98192.25;;;8.39;100.00
15670;BME280;18524;45.190;5.732;2023-03-11T05:04:58;98174.81;;;8.39;100.00
15670;BME280;18524;45.190;5.732;2023-03-11T05:09:49;98185.38;;;8.38;100.00
15670;BME280;18524;45.190;5.732;2023-03-11T05:14:39;98183.47;;;8.50;100.00
15670;BME280;18524;45.190;5.732;2023-03-11T05:19:29;98179.50;;;8.45;100.00
15670;BME280;18524;45.190;5.732;2023-03-11T05:24:20;98189.13;;;8.55;100.00
15670;BME280;18524;45.190;5.732;2023-03-11T05:29:10;98193.81;;;8.51;100.00
15670;BME280;18524;45.190;5.732;2023-03-11T05:34:01;98154.59;;;8.51;100.00
15670;BME280;18524;45.190;5.732;2023-03-11T05:38:51;98151.28;;;8.39;100.00
15670;BME280;18524;45.190;5.732;2023-03-11T05:43:42;98162.97;;;8.35;100.00
15670;BME280;18524;45.190;5.732;2023-03-11T05:48:32;98127.88;;;8.28;100.00
15670;BME280;18524;45.190;5.732;2023-03-11T05:53:23;98147.94;;;8.28;100.00
15670;BME280;18524;45.190;5.732;2023-03-11T05:58:14;98143.94;;;8.24;100.00
15670;BME280;18524;45.190;5.732;2023-03-11T06:03:04;98175.50;;;8.41;100.00
15670;BME280;18524;45.190;5.732;2023-03-11T06:07:55;98166.44;;;8.45;100.00
15670;BME280;18524;45.190;5.732;2023-03-11T06:12:45;98177.28;;;8.51;100.00
15670;BME280;18524;45.190;5.732;2023-03-11T06:17:35;98165.31;;;8.48;100.00
15670;BME280;18524;45.190;5.732;2023-03-11T06:22:26;98206.16;;;8.49;100.00
15670;BME280;18524;45.190;5.732;2023-03-11T06:27:16;98184.16;;;8.42;100.00
15670;BME280;18524;45.190;5.732;2023-03-11T06:32:06;98194.69;;;8.31;100.00
15670;BME280;18524;45.190;5.732;2023-03-11T06:36:57;98202.28;;;8.34;100.00
15670;BME280;18524;45.190;5.732;2023-03-11T06:41:49;98195.31;;;8.44;100.00
15670;BME280;18524;45.190;5.732;2023-03-11T06:46:39;98201.34;;;8.44;100.00
15670;BME280;18524;45.190;5.732;2023-03-11T06:51:30;98202.31;;;8.53;100.00
15670;BME280;18524;45.190;5.732;2023-03-11T06:56:21;98193.81;;;8.51;100.00
15670;BME280;18524;45.190;5.732;2023-03-11T07:01:13;98221.16;;;8.47;100.00
15670;BME280;18524;45.190;5.732;2023-03-11T07:06:04;98214.41;;;8.44;100.00
15670;BME280;18524;45.190;5.732;2023-03-11T07:11:05;98221.13;;;8.37;100.00
15670;BME280;18524;45.190;5.732;2023-03-11T07:16:00;98230.22;;;8.43;100.00
15670;BME280;18524;45.190;5.732;2023-03-11T07:20:51;98238.69;;;8.56;100.00
15670;BME280;18524;45.190;5.732;2023-03-11T07:25:45;98232.44;;;8.48;100.00
15670;BME280;18524;45.190;5.732;2023-03-11T07:30:37;98248.31;;;8.65;100.00
15670;BME280;18524;45.190;5.732;2023-03-11T07:35:28;98240.84;;;8.51;100.00
15670;BME280;18524;45.190;5.732;2023-03-11T07:40:18;98262.22;;;8.66;100.00
15670;BME280;18524;45.190;5.732;2023-03-11T07:45:09;98272.25;;;8.61;100.00
15670;BME280;18524;45.190;5.732;2023-03-11T07:49:59;98274.75;;;8.72;100.00
15670;BME280;18524;45.190;5.732;2023-03-11T07:54:50;98297.00;;;8.57;100.00
15670;BME280;18524;45.190;5.732;2023-03-11T07:59:40;98286.28;;;8.60;100.00
15670;BME280;18524;45.190;5.732;2023-03-11T08:04:31;98305.25;;;8.62;100.00
15670;BME280;18524;45.190;5.732;2023-03-11T08:09:21;98313.66;;;8.35;100.00
15670;BME280;18524;45.190;5.732;2023-03-11T08:14:11;98305.84;;;8.44;100.00
15670;BME280;18524;45.190;5.732;2023-03-11T08:19:02;98313.72;;;8.54;100.00
15670;BME280;18524;45.190;5.732;2023-03-11T08:23:55;98311.03;;;8.65;100.00
15670;BME280;18524;45.190;5.732;2023-03-11T08:28:47;98317.97;;;8.86;100.00
15670;BME280;18524;45.190;5.732;2023-03-11T08:33:37;98342.28;;;9.07;100.00
15670;BME280;18524;45.190;5.732;2023-03-11T08:38:28;98356.56;;;8.93;100.00
15670;BME280;18524;45.190;5.732;2023-03-11T08:43:18;98371.31;;;9.04;100.00
15670;BME280;18524;45.190;5.732;2023-03-11T08:48:10;98377.63;;;9.01;100.00
15670;BME280;18524;45.190;5.732;2023-03-11T08:53:00;98374.19;;;9.01;100.00
15670;BME280;18524;45.190;5.732;2023-03-11T08:57:52;98372.94;;;8.95;100.00
15670;BME280;18524;45.190;5.732;2023-03-11T09:02:43;98369.50;;;8.95;100.00
15670;BME280;18524;45.190;5.732;2023-03-11T09:07:33;98386.88;;;9.05;100.00
15670;BME280;18524;45.190;5.732;2023-03-11T09:12:23;98373.00;;;9.15;100.00
15670;BME280;18524;45.190;5.732;2023-03-11T09:17:14;98381.16;;;9.31;100.00
15670;BME280;18524;45.190;5.732;2023-03-11T09:22:04;98378.16;;;9.45;100.00
15670;BME280;18524;45.190;5.732;2023-03-11T09:26:55;98376.22;;;9.47;100.00
15670;BME280;18524;45.190;5.732;2023-03-11T09:31:46;98374.44;;;9.57;100.00
15670;BME280;18524;45.190;5.732;2023-03-11T09:36:40;98377.09;;;9.77;100.00
15670;BME280;18524;45.190;5.732;2023-03-11T09:41:41;98397.91;;;9.97;100.00
15670;BME280;18524;45.190;5.732;2023-03-11T09:52:18;98388.56;;;10.05;100.00
15670;BME280;18524;45.190;5.732;2023-03-11T09:57:18;98383.69;;;10.19;100.00
15670;BME280;18524;45.190;5.732;2023-03-11T10:02:18;98395.91;;;10.67;100.00
15670;BME280;18524;45.190;5.732;2023-03-11T10:07:14;98385.81;;;10.82;100.00
15670;BME280;18524;45.190;5.732;2023-03-11T10:27:20;98401.50;;;10.91;100.00
15670;BME280;18524;45.190;5.732;2023-03-11T10:32:16;98394.88;;;11.15;100.00
15670;BME280;18524;45.190;5.732;2023-03-11T10:42:04;98382.41;;;11.72;100.00
15670;BME280;18524;45.190;5.732;2023-03-11T10:46:55;98403.38;;;11.81;100.00
15670;BME280;18524;45.190;5.732;2023-03-11T10:51:47;98398.44;;;11.96;100.00
15670;BME280;18524;45.190;5.732;2023-03-11T10:56:39;98386.84;;;12.25;100.00
15670;BME280;18524;45.190;5.732;2023-03-11T11:01:30;98390.78;;;12.46;100.00
15670;BME280;18524;45.190;5.732;2023-03-11T11:11:22;98375.91;;;12.63;100.00
15670;BME280;18524;45.190;5.732;2023-03-11T11:16:16;98388.41;;;12.61;100.00
15670;BME280;18524;45.190;5.732;2023-03-11T11:26:02;98378.88;;;12.34;100.00
15670;BME280;18524;45.190;5.732;2023-03-11T11:31:02;98368.56;;;12.67;100.00
15670;BME280;18524;45.190;5.732;2023-03-11T11:35:56;98383.84;;;12.97;100.00
15670;BME280;18524;45.190;5.732;2023-03-11T11:40:47;98394.94;;;13.09;100.00
15670;BME280;18524;45.190;5.732;2023-03-11T11:45:45;98391.81;;;12.79;100.00
15670;BME280;18524;45.190;5.732;2023-03-11T11:50:40;98405.84;;;12.62;100.00
15670;BME280;18524;45.190;5.732;2023-03-11T11:55:32;98407.44;;;12.55;100.00
15670;BME280;18524;45.190;5.732;2023-03-11T12:00:59;98401.78;;;12.68;100.00
15670;BME280;18524;45.190;5.732;2023-03-11T12:05:57;98407.88;;;12.68;100.00
15670;BME280;18524;45.190;5.732;2023-03-11T12:11:00;98412.69;;;12.55;100.00
15670;BME280;18524;45.190;5.732;2023-03-11T12:15:53;98397.81;;;12.64;100.00
15670;BME280;18524;45.190;5.732;2023-03-11T12:20:53;98400.44;;;12.64;100.00
15670;BME280;18524;45.190;5.732;2023-03-11T12:31:02;98391.00;;;12.27;100.00
15670;BME280;18524;45.190;5.732;2023-03-11T12:35:58;98404.50;;;12.32;100.00
15670;BME280;18524;45.190;5.732;2023-03-11T12:45:51;98387.50;;;12.44;100.00
15670;BME280;18524;45.190;5.732;2023-03-11T12:50:43;98384.59;;;12.81;100.00
15670;BME280;18524;45.190;5.732;2023-03-11T12:55:35;98384.66;;;12.98;100.00
15670;BME280;18524;45.190;5.732;2023-03-11T13:01:10;98385.47;;;13.24;100.00
15670;BME280;18524;45.190;5.732;2023-03-11T13:26:30;98365.81;;;13.53;100.00
15670;BME280;18524;45.190;5.732;2023-03-11T13:37:08;98369.19;;;13.95;100.00
15670;BME280;18524;45.190;5.732;2023-03-11T13:42:01;98363.41;;;14.08;100.00
15670;BME280;18524;45.190;5.732;2023-03-11T13:47:00;98362.44;;;14.17;100.00
15670;BME280;18524;45.190;5.732;2023-03-11T13:51:54;98362.59;;;14.32;100.00
15670;BME280;18524;45.190;5.732;2023-03-11T13:56:50;98368.84;;;14.55;100.00
15670;BME280;18524;45.190;5.732;2023-03-11T14:01:55;98366.72;;;14.59;100.00
15670;BME280;18524;45.190;5.732;2023-03-11T14:06:46;98361.22;;;14.68;100.00
15670;BME280;18524;45.190;5.732;2023-03-11T14:11:36;98368.44;;;14.83;100.00
15670;BME280;18524;45.190;5.732;2023-03-11T14:16:32;98373.25;;;14.87;100.00
15670;BME280;18524;45.190;5.732;2023-03-11T14:21:25;98383.13;;;14.85;100.00
15670;BME280;18524;45.190;5.732;2023-03-11T14:26:21;98387.09;;;14.81;100.00
15670;BME280;18524;45.190;5.732;2023-03-11T14:31:30;98401.44;;;14.95;100.00
15670;BME280;18524;45.190;5.732;2023-03-11T14:36:21;98397.72;;;15.12;100.00
15670;BME280;18524;45.190;5.732;2023-03-11T14:41:12;98415.06;;;15.15;100.00
15670;BME280;18524;45.190;5.732;2023-03-11T14:46:05;98408.91;;;15.22;100.00
15670;BME280;18524;45.190;5.732;2023-03-11T14:50:57;98406.22;;;15.39;100.00
15670;BME280;18524;45.190;5.732;2023-03-11T14:55:57;98399.38;;;15.52;100.00
15670;BME280;18524;45.190;5.732;2023-03-11T15:00:52;98414.16;;;15.39;100.00
15670;BME280;18524;45.190;5.732;2023-03-11T15:06:04;98398.59;;;15.44;100.00
15670;BME280;18524;45.190;5.732;2023-03-11T15:11:03;98406.91;;;15.32;100.00
15670;BME280;18524;45.190;5.732;2023-03-11T15:16:03;98407.22;;;15.38;100.00
15670;BME280;18524;45.190;5.732;2023-03-11T15:26:04;98421.16;;;15.15;100.00
15670;BME280;18524;45.190;5.732;2023-03-11T15:41:17;98426.88;;;15.35;100.00
15670;BME280;18524;45.190;5.732;2023-03-11T15:46:09;98432.53;;;15.24;100.00
15670;BME280;18524;45.190;5.732;2023-03-11T15:51:00;98433.41;;;15.08;100.00
15670;BME280;18524;45.190;5.732;2023-03-11T15:55:51;98429.50;;;14.88;100.00
15670;BME280;18524;45.190;5.732;2023-03-11T16:00:48;98426.88;;;14.72;100.00
15670;BME280;18524;45.190;5.732;2023-03-11T16:05:38;98453.94;;;14.74;100.00
15670;BME280;18524;45.190;5.732;2023-03-11T16:10:29;98448.97;;;14.87;100.00
15670;BME280;18524;45.190;5.732;2023-03-11T16:15:21;98440.88;;;14.80;100.00
15670;BME280;18524;45.190;5.732;2023-03-11T16:20:13;98457.88;;;14.78;100.00
15670;BME280;18524;45.190;5.732;2023-03-11T16:25:04;98451.59;;;14.79;100.00
15670;BME280;18524;45.190;5.732;2023-03-11T16:29:57;98458.56;;;14.63;100.00
15670;BME280;18524;45.190;5.732;2023-03-11T16:34:48;98478.84;;;14.47;100.00
15670;BME280;18524;45.190;5.732;2023-03-11T16:39:38;98498.78;;;14.49;100.00
15670;BME280;18524;45.190;5.732;2023-03-11T16:44:29;98501.72;;;14.30;100.00
15670;BME280;18524;45.190;5.732;2023-03-11T16:49:19;98510.44;;;14.14;100.00
15670;BME280;18524;45.190;5.732;2023-03-11T16:54:09;98511.72;;;14.10;100.00
15670;BME280;18524;45.190;5.732;2023-03-11T16:59:00;98527.38;;;14.03;100.00
15670;BME280;18524;45.190;5.732;2023-03-11T17:03:51;98538.22;;;13.92;100.00
15670;BME280;18524;45.190;5.732;2023-03-11T17:08:42;98539.81;;;13.77;100.00
15670;BME280;18524;45.190;5.732;2023-03-11T17:13:37;98533.56;;;13.78;100.00
15670;BME280;18524;45.190;5.732;2023-03-11T17:18:28;98544.25;;;13.76;100.00
15670;BME280;18524;45.190;5.732;2023-03-11T17:23:18;98570.38;;;13.70;100.00
15670;BME280;18524;45.190;5.732;2023-03-11T17:28:09;98560.47;;;13.64;100.00
15670;BME280;18524;45.190;5.732;2023-03-11T17:32:59;98569.84;;;13.58;100.00
15670;BME280;18524;45.190;5.732;2023-03-11T17:37:50;98588.25;;;13.50;100.00
15670;BME280;18524;45.190;5.732;2023-03-11T17:42:40;98591.38;;;13.54;100.00
15670;BME280;18524;45.190;5.732;2023-03-11T17:47:31;98608.50;;;13.50;100.00
15670;BME280;18524;45.190;5.732;2023-03-11T17:52:22;98618.66;;;13.44;100.00
15670;BME280;18524;45.190;5.732;2023-03-11T17:57:12;98624.47;;;13.30;100.00
15670;BME280;18524;45.190;5.732;2023-03-11T18:02:03;98632.38;;;13.30;100.00
15670;BME280;18524;45.190;5.732;2023-03-11T18:06:53;98637.94;;;13.27;100.00
15670;BME280;18524;45.190;5.732;2023-03-11T18:11:44;98658.19;;;13.27;100.00
15670;BME280;18524;45.190;5.732;2023-03-11T18:16:34;98651.94;;;13.28;100.00
15670;BME280;18524;45.190;5.732;2023-03-11T18:21:27;98666.47;;;13.32;100.00
15670;BME280;18524;45.190;5.732;2023-03-11T18:26:18;98668.88;;;13.25;100.00
15670;BME280;18524;45.190;5.732;2023-03-11T18:31:14;98669.72;;;13.26;100.00
15670;BME280;18524;45.190;5.732;2023-03-11T18:36:16;98676.41;;;13.20;100.00
15670;BME280;18524;45.190;5.732;2023-03-11T18:41:07;98667.97;;;13.34;100.00
15670;BME280;18524;45.190;5.732;2023-03-11T18:45:59;98692.38;;;13.19;100.00
15670;BME280;18524;45.190;5.732;2023-03-11T18:50:51;98699.28;;;13.20;100.00
15670;BME280;18524;45.190;5.732;2023-03-11T18:55:41;98696.81;;;13.18;100.00
15670;BME280;18524;45.190;5.732;2023-03-11T19:00:32;98695.00;;;13.19;100.00
15670;BME280;18524;45.190;5.732;2023-03-11T19:05:22;98708.31;;;13.17;100.00
15670;BME280;18524;45.190;5.732;2023-03-11T19:10:13;98716.22;;;13.17;100.00
15670;BME280;18524;45.190;5.732;2023-03-11T19:15:05;98719.22;;;13.22;100.00
15670;BME280;18524;45.190;5.732;2023-03-11T19:19:55;98727.56;;;13.18;100.00
15670;BME280;18524;45.190;5.732;2023-03-11T19:24:46;98730.06;;;13.19;100.00
15670;BME280;18524;45.190;5.732;2023-03-11T19:29:36;98734.09;;;13.13;100.00
15670;BME280;18524;45.190;5.732;2023-03-11T19:34:26;98734.91;;;13.14;100.00
15670;BME280;18524;45.190;5.732;2023-03-11T19:39:18;98725.28;;;13.05;100.00
15670;BME280;18524;45.190;5.732;2023-03-11T19:44:08;98743.53;;;12.89;100.00
15670;BME280;18524;45.190;5.732;2023-03-11T19:48:58;98751.56;;;12.87;100.00
15670;BME280;18524;45.190;5.732;2023-03-11T19:53:49;98746.25;;;12.97;100.00
15670;BME280;18524;45.190;5.732;2023-03-11T19:58:40;98755.03;;;12.88;100.00
15670;BME280;18524;45.190;5.732;2023-03-11T20:03:31;98745.25;;;12.98;100.00
15670;BME280;18524;45.190;5.732;2023-03-11T20:08:23;98750.38;;;12.99;100.00
15670;BME280;18524;45.190;5.732;2023-03-11T20:13:15;98747.63;;;13.01;100.00
15670;BME280;18524;45.190;5.732;2023-03-11T20:18:06;98765.09;;;12.92;100.00
15670;BME280;18524;45.190;5.732;2023-03-11T20:22:57;98783.22;;;12.77;100.00
15670;BME280;18524;45.190;5.732;2023-03-11T20:27:47;98799.38;;;12.82;100.00
15670;BME280;18524;45.190;5.732;2023-03-11T20:32:38;98801.03;;;12.83;100.00
15670;BME280;18524;45.190;5.732;2023-03-11T20:37:30;98808.25;;;12.81;100.00
15670;BME280;18524;45.190;5.732;2023-03-11T20:42:20;98811.41;;;12.85;100.00
15670;BME280;18524;45.190;5.732;2023-03-11T20:47:10;98829.94;;;12.93;100.00
15670;BME280;18524;45.190;5.732;2023-03-11T20:52:01;98837.19;;;12.81;100.00
15670;BME280;18524;45.190;5.732;2023-03-11T20:56:51;98850.66;;;12.78;100.00
15670;BME280;18524;45.190;5.732;2023-03-11T21:01:42;98839.53;;;12.84;100.00
15670;BME280;18524;45.190;5.732;2023-03-11T21:06:36;98856.00;;;12.87;100.00
15670;BME280;18524;45.190;5.732;2023-03-11T21:11:27;98857.47;;;12.71;100.00
15670;BME280;18524;45.190;5.732;2023-03-11T21:16:17;98865.75;;;12.76;100.00
15670;BME280;18524;45.190;5.732;2023-03-11T21:21:08;98877.25;;;12.75;100.00
15670;BME280;18524;45.190;5.732;2023-03-11T21:26:02;98879.78;;;12.67;100.00
15670;BME280;18524;45.190;5.732;2023-03-11T21:31:16;98869.66;;;12.72;100.00
15670;BME280;18524;45.190;5.732;2023-03-11T21:36:08;98879.78;;;12.67;100.00
15670;BME280;18524;45.190;5.732;2023-03-11T21:46:02;98882.25;;;12.69;100.00
15670;BME280;18524;45.190;5.732;2023-03-11T21:50:53;98878.50;;;12.71;100.00
15670;BME280;18524;45.190;5.732;2023-03-11T21:55:43;98893.63;;;12.69;100.00
15670;BME280;18524;45.190;5.732;2023-03-11T22:00:34;98894.56;;;12.78;100.00
15670;BME280;18524;45.190;5.732;2023-03-11T22:05:25;98886.94;;;12.75;100.00
15670;BME280;18524;45.190;5.732;2023-03-11T22:10:16;98879.50;;;12.70;100.00
15670;BME280;18524;45.190;5.732;2023-03-11T22:15:07;98900.00;;;12.57;100.00
15670;BME280;18524;45.190;5.732;2023-03-11T22:19:57;98897.66;;;12.54;100.00
15670;BME280;18524;45.190;5.732;2023-03-11T22:24:48;98908.72;;;12.58;100.00
15670;BME280;18524;45.190;5.732;2023-03-11T22:29:38;98896.41;;;12.58;100.00
15670;BME280;18524;45.190;5.732;2023-03-11T22:34:29;98911.09;;;12.51;100.00
15670;BME280;18524;45.190;5.732;2023-03-11T22:39:19;98908.72;;;12.58;100.00
15670;BME280;18524;45.190;5.732;2023-03-11T22:44:09;98926.31;;;12.57;100.00
15670;BME280;18524;45.190;5.732;2023-03-11T22:49:00;98928.97;;;12.47;100.00
15670;BME280;18524;45.190;5.732;2023-03-11T22:53:50;98943.06;;;12.46;100.00
15670;BME280;18524;45.190;5.732;2023-03-11T22:58:41;98947.63;;;12.54;100.00
15670;BME280;18524;45.190;5.732;2023-03-11T23:03:32;98952.31;;;12.60;100.00
15670;BME280;18524;45.190;5.732;2023-03-11T23:08:23;98960.06;;;12.62;100.00
15670;BME280;18524;45.190;5.732;2023-03-11T23:13:14;98977.13;;;12.58;100.00
15670;BME280;18524;45.190;5.732;2023-03-11T23:18:04;98974.63;;;12.56;100.00
15670;BME280;18524;45.190;5.732;2023-03-11T23:22:55;98969.38;;;12.56;100.00
15670;BME280;18524;45.190;5.732;2023-03-11T23:27:45;98981.81;;;12.54;100.00
15670;BME280;18524;45.190;5.732;2023-03-11T23:32:36;98984.06;;;12.49;100.00
15670;BME280;18524;45.190;5.732;2023-03-11T23:37:26;98973.81;;;12.46;100.00
15670;BME280;18524;45.190;5.732;2023-03-11T23:42:16;98979.75;;;12.58;100.00
15670;BME280;18524;45.190;5.732;2023-03-11T23:47:07;98968.69;;;12.54;100.00
15670;BME280;18524;45.190;5.732;2023-03-11T23:51:57;98972.56;;;12.50;100.00
15670;BME280;18524;45.190;5.732;2023-03-11T23:56:47;98970.22;;;12.47;100.00
